Time;durP1;ratioP1;P1;durP2;ratioP2;P2;SDS_P1;SDS_P2;PMS_P1;PMS_P2;Temp;Humidity;BMP_temperature;BMP_pressure;BME280_temperature;BME280_humidity;BME280_pressure;Samples;Min_cycle;Max_cycle;Signal;HPM_P1;HPM_P2
2021/05/22 00:02:06;;;;;;;;;;;8.10;90.70;;;;;;5094420;28;20304;-71
2021/05/22 00:04:31;;;;;;;;;;;8.20;89.60;;;;;;5088151;28;19934;-70
2021/05/22 00:06:57;;;;;;;;;;;8.30;89.20;;;;;;5085596;28;19912;-72
2021/05/22 00:09:22;;;;;;;;;;;8.30;89.00;;;;;;5078569;28;19919;-70
2021/05/22 00:11:51;;;;;;;;;;;8.30;89.50;;;;;;5095694;28;19916;-70
2021/05/22 00:14:16;;;;;;;;;;;8.20;89.50;;;;;;5092320;28;19920;-71
2021/05/22 00:16:42;;;;;;;;;;;8.30;89.40;;;;;;5083816;28;19912;-70
2021/05/22 00:19:07;;;;;;;;;;;8.30;89.50;;;;;;5076240;28;19912;-70
2021/05/22 00:21:33;;;;;;;;;;;8.20;89.90;;;;;;5094815;28;19918;-70
2021/05/22 00:23:59;;;;;;;;;;;8.20;90.50;;;;;;5095110;28;19946;-70
2021/05/22 00:26:24;;;;;;;;;;;8.20;90.60;;;;;;5084939;28;19938;-70
2021/05/22 00:28:50;;;;;;;;;;;8.20;90.80;;;;;;5073380;28;20013;-70
2021/05/22 00:31:15;;;;;;;;;;;8.20;91.40;;;;;;5095151;28;19957;-70
2021/05/22 00:33:41;;;;;;;;;;;8.10;91.60;;;;;;5095147;28;20003;-70
2021/05/22 00:36:06;;;;;;;;;;;8.10;91.80;;;;;;5076156;28;19969;-70
2021/05/22 00:38:32;;;;;;;;;;;8.10;91.80;;;;;;5076051;28;19973;-69
2021/05/22 00:40:57;;;;;;;;;;;8.10;91.90;;;;;;5083051;28;19912;-69
2021/05/22 00:43:23;;;;;;;;;;;8.10;91.70;;;;;;5086943;28;19916;-69
2021/05/22 00:45:50;;;;;;;;;;;8.10;91.70;;;;;;5094456;28;19916;-70
2021/05/22 00:48:19;;;;;;;;;;;8.20;91.90;;;;;;5090848;28;19919;-69
2021/05/22 00:50:44;;;;;;;;;;;8.20;91.70;;;;;;5087725;28;20309;-70
2021/05/22 00:53:10;;;;;;;;;;;8.20;91.70;;;;;;5084907;28;19919;-69
2021/05/22 00:55:36;;;;;;;;;;;8.30;91.60;;;;;;5084645;28;20036;-71
2021/05/22 00:58:02;;;;;;;;;;;8.30;91.50;;;;;;5093564;28;20003;-70
2021/05/22 01:00:37;;;;;;;;;;;8.40;91.20;;;;;;5086978;28;19923;-71
2021/05/22 01:03:02;;;;;;;;;;;8.30;91.40;;;;;;5092642;28;19951;-70
2021/05/22 01:05:28;;;;;;;;;;;8.30;91.70;;;;;;5085440;28;20291;-70
2021/05/22 01:07:54;;;;;;;;;;;8.30;91.00;;;;;;5085348;28;20296;-70
2021/05/22 01:10:20;;;;;;;;;;;8.40;91.20;;;;;;5090872;28;19920;-69
2021/05/22 01:12:48;;;;;;;;;;;8.40;91.00;;;;;;5092267;28;19938;-70
2021/05/22 01:15:15;;;;;;;;;;;8.40;91.00;;;;;;5061369;28;19920;-70
2021/05/22 01:17:43;;;;;;;;;;;8.40;90.90;;;;;;5093844;28;19912;-69
2021/05/22 01:20:13;;;;;;;;;;;8.50;90.50;;;;;;5094481;28;19916;-69
2021/05/22 01:22:43;;;;;;;;;;;8.50;90.60;;;;;;5092925;28;19916;-70
2021/05/22 01:25:21;;;;;;;;;;;8.50;90.30;;;;;;5074901;28;20007;-69
2021/05/22 01:27:47;;;;;;;;;;;8.50;90.60;;;;;;5087153;28;19947;-69
2021/05/22 01:30:13;;;;;;;;;;;8.50;90.30;;;;;;5091490;28;19969;-70
2021/05/22 01:32:40;;;;;;;;;;;8.50;90.30;;;;;;5092003;28;19969;-69
2021/05/22 01:35:06;;;;;;;;;;;8.50;90.30;;;;;;5088155;28;19981;-69
2021/05/22 01:37:32;;;;;;;;;;;8.50;90.50;;;;;;5089016;28;19913;-68
2021/05/22 01:39:57;;;;;;;;;;;8.50;90.60;;;;;;5091807;28;19912;-69
2021/05/22 01:42:23;;;;;;;;;;;8.40;90.50;;;;;;5092895;28;19912;-68
2021/05/22 01:44:50;;;;;;;;;;;8.50;90.70;;;;;;5085195;28;19916;-70
2021/05/22 01:47:17;;;;;;;;;;;8.50;90.00;;;;;;5090570;28;20364;-68
2021/05/22 01:49:42;;;;;;;;;;;8.60;89.90;;;;;;5092245;28;19920;-70
2021/05/22 01:52:09;;;;;;;;;;;8.60;89.90;;;;;;5096855;28;19923;-70
2021/05/22 01:54:36;;;;;;;;;;;8.60;89.90;;;;;;5095124;28;19968;-69
2021/05/22 01:57:01;;;;;;;;;;;8.60;90.10;;;;;;5079941;28;19912;-69
2021/05/22 01:59:27;;;;;;;;;;;8.60;90.00;;;;;;5088626;28;19919;-68
2021/05/22 02:01:59;;;;;;;;;;;8.60;90.20;;;;;;5090709;28;19912;-70
2021/05/22 02:04:29;;;;;;;;;;;8.60;90.30;;;;;;5096714;28;19919;-70
2021/05/22 02:06:55;;;;;;;;;;;8.60;90.40;;;;;;5096210;28;19920;-69
2021/05/22 02:09:21;;;;;;;;;;;8.50;90.70;;;;;;5095663;28;19970;-70
2021/05/22 02:11:48;;;;;;;;;;;8.50;90.80;;;;;;5093640;28;19920;-70
2021/05/22 02:14:36;;;;;;;;;;;8.60;90.80;;;;;;5090168;28;19920;-70
2021/05/22 02:17:04;;;;;;;;;;;8.60;90.80;;;;;;5097409;28;19977;-70
2021/05/22 02:19:31;;;;;;;;;;;8.60;90.60;;;;;;5097981;28;20291;-70
2021/05/22 02:21:59;;;;;;;;;;;8.60;90.90;;;;;;5091960;28;19947;-70
2021/05/22 02:24:25;;;;;;;;;;;8.60;91.00;;;;;;5094372;28;19959;-69
2021/05/22 02:27:01;;;;;;;;;;;8.60;90.80;;;;;;5089371;28;19955;-71
2021/05/22 02:29:27;;;;;;;;;;;8.60;91.00;;;;;;5095007;28;19916;-70
2021/05/22 02:31:53;;;;;;;;;;;8.50;91.00;;;;;;5096271;28;20373;-70
2021/05/22 02:34:22;;;;;;;;;;;8.50;91.20;;;;;;5098078;28;19927;-70
2021/05/22 02:36:49;;;;;;;;;;;8.60;91.20;;;;;;5096700;28;19912;-69
2021/05/22 02:39:15;;;;;;;;;;;8.60;91.20;;;;;;5097760;28;19916;-70
2021/05/22 02:41:42;;;;;;;;;;;8.60;91.10;;;;;;5097494;28;20392;-70
2021/05/22 02:44:08;;;;;;;;;;;8.60;91.00;;;;;;5095023;28;19938;-72
2021/05/22 02:46:39;;;;;;;;;;;8.60;91.10;;;;;;5092525;28;20266;-72
2021/05/22 02:49:09;;;;;;;;;;;8.60;91.10;;;;;;5086606;28;19912;-71
2021/05/22 02:51:35;;;;;;;;;;;8.60;91.00;;;;;;5094892;28;19919;-71
2021/05/22 02:54:01;;;;;;;;;;;8.60;91.20;;;;;;5096754;28;19916;-71
2021/05/22 02:56:27;;;;;;;;;;;8.60;91.30;;;;;;5105379;28;19923;-71
2021/05/22 02:58:52;;;;;;;;;;;8.60;91.30;;;;;;5070470;28;19912;-70
2021/05/22 03:01:19;;;;;;;;;;;8.60;91.50;;;;;;5086353;28;19935;-71
2021/05/22 03:03:45;;;;;;;;;;;8.60;91.40;;;;;;5097671;28;19912;-71
2021/05/22 03:06:10;;;;;;;;;;;8.60;91.50;;;;;;5095601;28;20681;-70
2021/05/22 03:08:46;;;;;;;;;;;8.50;91.70;;;;;;5097654;28;19962;-71
2021/05/22 03:11:13;;;;;;;;;;;8.40;91.80;;;;;;5096024;28;19915;-71
2021/05/22 03:13:39;;;;;;;;;;;8.30;92.00;;;;;;5079404;28;19916;-71
2021/05/22 03:16:04;;;;;;;;;;;8.20;92.40;;;;;;5097070;28;19965;-71
2021/05/22 03:18:30;;;;;;;;;;;8.20;92.70;;;;;;5097035;28;19912;-69
2021/05/22 03:20:55;;;;;;;;;;;8.20;92.80;;;;;;5095756;28;19934;-70
2021/05/22 03:23:21;;;;;;;;;;;8.20;92.80;;;;;;5096713;28;20015;-71
2021/05/22 03:25:47;;;;;;;;;;;8.20;92.80;;;;;;5095728;28;19916;-71
2021/05/22 03:28:12;;;;;;;;;;;8.20;92.90;;;;;;5096577;28;20292;-70
2021/05/22 03:30:38;;;;;;;;;;;8.10;93.40;;;;;;5084787;28;19919;-70
2021/05/22 03:33:03;;;;;;;;;;;8.10;93.40;;;;;;5096586;28;20330;-71
2021/05/22 03:35:29;;;;;;;;;;;8.10;93.20;;;;;;5096492;28;19916;-71
2021/05/22 03:37:54;;;;;;;;;;;8.10;93.40;;;;;;5095000;28;19912;-71
2021/05/22 03:40:20;;;;;;;;;;;8.10;93.40;;;;;;5096411;28;19920;-71
2021/05/22 03:42:48;;;;;;;;;;;8.00;93.50;;;;;;5096922;28;19935;-70
2021/05/22 03:45:14;;;;;;;;;;;7.90;93.80;;;;;;5094416;28;19912;-71
2021/05/22 03:47:42;;;;;;;;;;;8.00;93.90;;;;;;5096096;28;19919;-70
2021/05/22 03:50:08;;;;;;;;;;;7.90;93.90;;;;;;5096012;28;20109;-70
2021/05/22 03:52:34;;;;;;;;;;;8.00;94.00;;;;;;5095511;28;20227;-71
2021/05/22 03:54:59;;;;;;;;;;;7.90;94.10;;;;;;5096426;28;19928;-71
2021/05/22 03:57:25;;;;;;;;;;;7.90;94.20;;;;;;5082475;28;19912;-70
2021/05/22 03:59:50;;;;;;;;;;;8.10;94.00;;;;;;5096731;28;19908;-70
2021/05/22 04:02:16;;;;;;;;;;;8.20;93.70;;;;;;5078169;28;19966;-71
2021/05/22 04:04:41;;;;;;;;;;;8.30;93.00;;;;;;5096394;28;19920;-71
2021/05/22 04:07:09;;;;;;;;;;;8.30;92.90;;;;;;5094277;28;19923;-71
2021/05/22 04:09:35;;;;;;;;;;;8.30;92.60;;;;;;5095856;28;19922;-70
2021/05/22 04:12:00;;;;;;;;;;;8.30;92.50;;;;;;5096314;28;19908;-70
2021/05/22 04:14:26;;;;;;;;;;;8.30;92.60;;;;;;5095391;28;19961;-71
2021/05/22 04:16:51;;;;;;;;;;;8.40;92.00;;;;;;5094997;28;19919;-70
2021/05/22 04:19:17;;;;;;;;;;;8.50;91.50;;;;;;5063026;28;19912;-71
2021/05/22 04:21:42;;;;;;;;;;;8.40;91.60;;;;;;5095390;28;19912;-70
2021/05/22 04:24:08;;;;;;;;;;;8.40;91.50;;;;;;5096086;28;19920;-71
2021/05/22 04:26:34;;;;;;;;;;;8.40;91.40;;;;;;5095455;28;19966;-71
2021/05/22 04:28:59;;;;;;;;;;;8.40;91.50;;;;;;5096104;28;20258;-71
2021/05/22 04:31:26;;;;;;;;;;;8.40;91.40;;;;;;5096047;28;19919;-71
2021/05/22 04:33:51;;;;;;;;;;;8.40;91.30;;;;;;5095491;28;20208;-71
2021/05/22 04:36:17;;;;;;;;;;;8.50;91.00;;;;;;5094182;28;19912;-70
2021/05/22 04:38:42;;;;;;;;;;;8.50;90.60;;;;;;5095905;28;19966;-71
2021/05/22 04:41:08;;;;;;;;;;;8.50;90.60;;;;;;5095775;28;19943;-71
2021/05/22 04:43:33;;;;;;;;;;;8.50;90.30;;;;;;5094153;28;19927;-71
2021/05/22 04:45:59;;;;;;;;;;;8.40;90.20;;;;;;5093807;28;19912;-71
2021/05/22 04:48:27;;;;;;;;;;;8.40;90.10;;;;;;5094239;28;19955;-71
2021/05/22 04:50:55;;;;;;;;;;;8.40;90.10;;;;;;5094632;28;19916;-70
2021/05/22 04:53:22;;;;;;;;;;;8.40;90.00;;;;;;5095570;28;20194;-70
2021/05/22 04:55:48;;;;;;;;;;;8.50;89.30;;;;;;5072789;28;19932;-71
2021/05/22 04:58:13;;;;;;;;;;;8.50;88.90;;;;;;5075003;28;19964;-72
2021/05/22 05:00:39;;;;;;;;;;;8.50;88.40;;;;;;5075200;28;19916;-70
2021/05/22 05:03:04;;;;;;;;;;;8.60;88.50;;;;;;5069620;28;19913;-72
2021/05/22 05:05:30;;;;;;;;;;;8.50;88.70;;;;;;5067837;28;19930;-71
2021/05/22 05:07:55;;;;;;;;;;;8.50;89.40;;;;;;5074426;28;19954;-71
2021/05/22 05:10:21;;;;;;;;;;;8.50;88.90;;;;;;5075076;28;20311;-71
2021/05/22 05:12:46;;;;;;;;;;;8.60;88.50;;;;;;5075137;28;19913;-70
2021/05/22 05:15:12;;;;;;;;;;;8.60;88.10;;;;;;5073303;28;19923;-70
2021/05/22 05:17:37;;;;;;;;;;;8.70;88.30;;;;;;5073769;28;19920;-71
2021/05/22 05:20:03;;;;;;;;;;;8.70;87.70;;;;;;5074802;28;19919;-70
2021/05/22 05:22:29;;;;;;;;;;;8.70;87.70;;;;;;5074164;28;19915;-71
2021/05/22 05:24:55;;;;;;;;;;;8.80;87.50;;;;;;5071185;28;20209;-71
2021/05/22 05:27:21;;;;;;;;;;;8.80;87.90;;;;;;5072178;28;19966;-70
2021/05/22 05:29:46;;;;;;;;;;;8.90;87.30;;;;;;5078516;28;19913;-70
2021/05/22 05:32:12;;;;;;;;;;;9.10;87.50;;;;;;5079265;28;19916;-69
2021/05/22 05:34:38;;;;;;;;;;;9.10;86.80;;;;;;5076820;28;19924;-69
2021/05/22 05:37:03;;;;;;;;;;;9.10;86.90;;;;;;5064810;28;19919;-71
2021/05/22 05:39:29;;;;;;;;;;;9.10;87.30;;;;;;5059381;28;20324;-71
2021/05/22 05:41:55;;;;;;;;;;;9.10;87.40;;;;;;5059297;28;19909;-71
2021/05/22 05:44:20;;;;;;;;;;;9.10;86.80;;;;;;5074015;28;20445;-71
2021/05/22 05:46:46;;;;;;;;;;;9.00;87.40;;;;;;5069459;28;19955;-70
2021/05/22 05:49:12;;;;;;;;;;;9.10;87.00;;;;;;5061566;28;19917;-70
2021/05/22 05:51:37;;;;;;;;;;;9.40;86.30;;;;;;5066632;28;19970;-70
2021/05/22 05:54:03;;;;;;;;;;;9.50;85.60;;;;;;5080862;28;20301;-70
2021/05/22 05:56:29;;;;;;;;;;;9.60;85.80;;;;;;5092785;28;20014;-70
2021/05/22 05:58:54;;;;;;;;;;;9.50;85.80;;;;;;5093805;28;19994;-70
2021/05/22 06:01:20;;;;;;;;;;;9.60;85.90;;;;;;5096783;28;19940;-70
2021/05/22 06:03:48;;;;;;;;;;;9.60;85.50;;;;;;5094453;28;20004;-71
2021/05/22 06:06:13;;;;;;;;;;;9.70;85.30;;;;;;5089606;28;19920;-70
2021/05/22 06:08:39;;;;;;;;;;;9.80;84.50;;;;;;5078598;28;20332;-70
2021/05/22 06:11:06;;;;;;;;;;;9.70;85.10;;;;;;5064224;28;19912;-69
2021/05/22 06:13:34;;;;;;;;;;;9.80;84.90;;;;;;5090721;28;20007;-70
2021/05/22 06:18:30;;;;;;;;;;;10.00;84.50;;;;;;5081576;28;20361;-72
2021/05/22 06:20:56;;;;;;;;;;;10.10;84.40;;;;;;5088919;28;19955;-69
2021/05/22 06:23:24;;;;;;;;;;;10.00;83.80;;;;;;5097902;28;19913;-70
2021/05/22 06:25:53;;;;;;;;;;;9.80;84.50;;;;;;5081282;28;20275;-70
2021/05/22 06:28:19;;;;;;;;;;;10.10;85.00;;;;;;5084626;28;19916;-71
2021/05/22 06:30:45;;;;;;;;;;;10.30;82.90;;;;;;5091305;28;20255;-71
2021/05/22 06:33:13;;;;;;;;;;;10.20;83.40;;;;;;5096090;28;19912;-70
2021/05/22 06:35:38;;;;;;;;;;;10.10;83.20;;;;;;5091055;28;19977;-72
2021/05/22 06:38:04;;;;;;;;;;;10.10;83.70;;;;;;5097283;28;20204;-70
2021/05/22 06:40:30;;;;;;;;;;;10.30;83.70;;;;;;5083412;28;19919;-70
2021/05/22 06:42:55;;;;;;;;;;;10.50;82.60;;;;;;5087965;28;19999;-70
2021/05/22 06:45:22;;;;;;;;;;;10.50;82.20;;;;;;5082887;28;19916;-71
2021/05/22 06:47:48;;;;;;;;;;;10.60;82.80;;;;;;5098105;28;20284;-70
2021/05/22 06:50:14;;;;;;;;;;;10.50;82.20;;;;;;5062810;28;20378;-71
2021/05/22 06:52:40;;;;;;;;;;;10.30;82.50;;;;;;5076523;28;19912;-70
2021/05/22 06:55:06;;;;;;;;;;;10.50;82.80;;;;;;5085044;28;19927;-70
2021/05/22 06:57:32;;;;;;;;;;;10.50;82.10;;;;;;5089561;28;19920;-71
2021/05/22 06:59:57;;;;;;;;;;;10.80;81.70;;;;;;5093686;28;19928;-70
2021/05/22 07:02:23;;;;;;;;;;;10.90;81.20;;;;;;5096295;28;20455;-72
2021/05/22 07:04:49;;;;;;;;;;;11.00;81.20;;;;;;5097898;28;19908;-72
2021/05/22 07:07:15;;;;;;;;;;;10.60;81.80;;;;;;5095021;28;19912;-72
2021/05/22 07:09:40;;;;;;;;;;;10.90;79.60;;;;;;5095166;28;19926;-71
2021/05/22 07:12:06;;;;;;;;;;;10.90;78.60;;;;;;5072731;28;19920;-71
2021/05/22 07:14:31;;;;;;;;;;;10.90;79.00;;;;;;5097286;28;20294;-71
2021/05/22 07:16:59;;;;;;;;;;;10.80;79.60;;;;;;5097740;28;19908;-72
2021/05/22 07:19:26;;;;;;;;;;;11.10;79.90;;;;;;5081883;28;19919;-70
2021/05/22 07:21:51;;;;;;;;;;;11.00;78.50;;;;;;5085524;28;20289;-71
2021/05/22 07:24:17;;;;;;;;;;;11.00;78.70;;;;;;5063849;28;19923;-72
2021/05/22 07:26:43;;;;;;;;;;;11.00;77.90;;;;;;5086006;28;19913;-72
2021/05/22 07:29:11;;;;;;;;;;;11.70;77.10;;;;;;5065266;28;20054;-72
2021/05/22 07:31:40;;;;;;;;;;;12.10;75.00;;;;;;5074134;28;20320;-71
2021/05/22 07:34:06;;;;;;;;;;;12.50;71.90;;;;;;5077182;28;19917;-72
2021/05/22 07:36:35;;;;;;;;;;;12.80;72.50;;;;;;5061357;28;20021;-71
2021/05/22 07:39:01;;;;;;;;;;;13.00;70.60;;;;;;5091921;28;19915;-72
2021/05/22 07:41:26;;;;;;;;;;;13.40;69.00;;;;;;5092002;28;19999;-71
2021/05/22 07:43:52;;;;;;;;;;;13.60;69.80;;;;;;5069703;28;20011;-71
2021/05/22 07:46:17;;;;;;;;;;;14.20;67.50;;;;;;5091927;28;20275;-71
2021/05/22 07:48:43;;;;;;;;;;;13.80;67.20;;;;;;5090194;28;19912;-72
2021/05/22 07:51:08;;;;;;;;;;;13.70;68.20;;;;;;5094579;28;20633;-72
2021/05/22 07:53:34;;;;;;;;;;;14.10;67.40;;;;;;5080832;28;19965;-72
2021/05/22 07:55:59;;;;;;;;;;;13.90;67.30;;;;;;5076410;28;19946;-72
2021/05/22 07:58:25;;;;;;;;;;;13.70;68.00;;;;;;5086923;28;20388;-72
2021/05/22 08:00:52;;;;;;;;;;;13.60;69.00;;;;;;5092635;28;19965;-72
2021/05/22 08:03:18;;;;;;;;;;;13.10;69.40;;;;;;5092646;28;19916;-72
2021/05/22 08:05:43;;;;;;;;;;;13.10;70.10;;;;;;5089655;28;19913;-71
2021/05/22 08:08:09;;;;;;;;;;;13.80;68.90;;;;;;5075538;28;20217;-72
2021/05/22 08:10:34;;;;;;;;;;;13.10;69.90;;;;;;5082965;28;20556;-72
2021/05/22 08:13:00;;;;;;;;;;;13.40;68.90;;;;;;5091086;28;20595;-72
2021/05/22 08:15:26;;;;;;;;;;;13.10;69.10;;;;;;5094078;28;19916;-71
2021/05/22 08:17:51;;;;;;;;;;;13.20;69.70;;;;;;5096554;28;19912;-71
2021/05/22 08:20:20;;;;;;;;;;;13.40;69.60;;;;;;5092558;28;20331;-70
2021/05/22 08:22:46;;;;;;;;;;;13.30;67.60;;;;;;5091249;28;20009;-69
2021/05/22 08:25:12;;;;;;;;;;;12.80;68.40;;;;;;5089385;28;20332;-70
2021/05/22 08:27:37;;;;;;;;;;;12.40;68.60;;;;;;5084160;28;19912;-70
2021/05/22 08:30:03;;;;;;;;;;;12.30;70.10;;;;;;5088329;28;19912;-72
2021/05/22 08:32:31;;;;;;;;;;;12.10;70.30;;;;;;5083605;28;19966;-72
2021/05/22 08:34:57;;;;;;;;;;;12.80;69.30;;;;;;5096083;28;19999;-70
2021/05/22 08:37:23;;;;;;;;;;;12.60;68.70;;;;;;5094511;28;20054;-71
2021/05/22 08:39:50;;;;;;;;;;;13.00;70.00;;;;;;5091549;28;20340;-70
2021/05/22 08:42:16;;;;;;;;;;;13.90;68.30;;;;;;5076862;28;20247;-72
2021/05/22 08:44:42;;;;;;;;;;;14.80;65.50;;;;;;5079962;28;19920;-72
2021/05/22 08:47:09;;;;;;;;;;;15.00;64.60;;;;;;5093997;28;19939;-72
2021/05/22 08:49:41;;;;;;;;;;;14.80;65.10;;;;;;5086916;28;19912;-72
2021/05/22 08:52:11;;;;;;;;;;;13.50;67.20;;;;;;5074697;28;19993;-72
2021/05/22 08:54:43;;;;;;;;;;;13.50;67.90;;;;;;5081830;28;20312;-72
2021/05/22 08:57:09;;;;;;;;;;;14.20;65.30;;;;;;5084978;28;19912;-72
2021/05/22 08:59:40;;;;;;;;;;;14.30;65.00;;;;;;5092101;28;19965;-71
2021/05/22 09:02:06;;;;;;;;;;;14.10;66.20;;;;;;5080210;28;19996;-72
2021/05/22 09:04:32;;;;;;;;;;;14.90;65.40;;;;;;5095195;28;19952;-72
2021/05/22 09:07:01;;;;;;;;;;;15.30;64.50;;;;;;5094015;28;19916;-72
2021/05/22 09:09:40;;;;;;;;;;;15.10;64.80;;;;;;5061944;28;19938;-71
2021/05/22 09:12:08;;;;;;;;;;;14.10;66.40;;;;;;5073100;28;19954;-71
2021/05/22 09:14:44;;;;;;;;;;;14.60;66.40;;;;;;5087090;28;19916;-71
2021/05/22 09:17:11;;;;;;;;;;;14.40;65.90;;;;;;5092459;28;19916;-71
2021/05/22 09:19:37;;;;;;;;;;;14.70;64.30;;;;;;5091489;28;19920;-72
2021/05/22 09:22:23;;;;;;;;;;;14.90;64.20;;;;;;5090488;28;19918;-71
2021/05/22 09:24:59;;;;;;;;;;;15.10;64.40;;;;;;5095269;28;19916;-71
2021/05/22 09:27:29;;;;;;;;;;;16.20;63.90;;;;;;5089643;28;19916;-72
2021/05/22 09:29:54;;;;;;;;;;;15.90;61.30;;;;;;5088199;28;19916;-71
2021/05/22 09:32:20;;;;;;;;;;;15.70;61.90;;;;;;5095570;28;20128;-70
2021/05/22 09:34:48;;;;;;;;;;;15.20;62.50;;;;;;5089463;28;19920;-71
2021/05/22 09:37:13;;;;;;;;;;;15.30;64.40;;;;;;5094164;28;20006;-71
2021/05/22 09:39:48;;;;;;;;;;;16.10;61.80;;;;;;5086145;28;20069;-71
2021/05/22 09:42:14;;;;;;;;;;;15.90;61.90;;;;;;5095695;28;19912;-71
2021/05/22 09:44:40;;;;;;;;;;;16.10;61.60;;;;;;5094765;28;19913;-70
2021/05/22 09:47:07;;;;;;;;;;;16.10;61.00;;;;;;5092474;28;20285;-70
2021/05/22 09:49:37;;;;;;;;;;;15.00;62.40;;;;;;5075488;28;20489;-71
2021/05/22 09:52:03;;;;;;;;;;;15.10;62.60;;;;;;5079358;28;20003;-71
2021/05/22 09:54:47;;;;;;;;;;;15.10;63.80;;;;;;5087243;28;20011;-71
2021/05/22 09:57:15;;;;;;;;;;;15.60;62.50;;;;;;5079026;28;19920;-70
2021/05/22 09:59:42;;;;;;;;;;;16.40;61.10;;;;;;5093673;28;19912;-71
2021/05/22 10:02:10;;;;;;;;;;;16.60;61.90;;;;;;5077680;28;19972;-70
2021/05/22 10:04:35;;;;;;;;;;;16.30;60.20;;;;;;5081831;28;19908;-71
2021/05/22 10:07:01;;;;;;;;;;;15.30;63.50;;;;;;5086229;28;19943;-70
2021/05/22 10:09:28;;;;;;;;;;;16.20;61.50;;;;;;5079145;28;20281;-70
2021/05/22 10:12:00;;;;;;;;;;;16.10;62.00;;;;;;5095039;28;19943;-71
2021/05/22 10:14:26;;;;;;;;;;;16.50;62.00;;;;;;5062216;28;19958;-71
2021/05/22 10:16:52;;;;;;;;;;;17.40;61.00;;;;;;5097237;28;19919;-71
2021/05/22 10:19:17;;;;;;;;;;;17.80;59.90;;;;;;5082204;28;19999;-71
2021/05/22 10:21:43;;;;;;;;;;;17.80;59.10;;;;;;5089547;28;19916;-71
2021/05/22 10:24:10;;;;;;;;;;;17.50;60.30;;;;;;5090904;28;19997;-71
2021/05/22 10:26:35;;;;;;;;;;;16.50;60.20;;;;;;5098052;28;19923;-70
2021/05/22 10:29:01;;;;;;;;;;;16.40;59.70;;;;;;5097924;28;20360;-71
2021/05/22 10:31:27;;;;;;;;;;;16.40;60.50;;;;;;5097011;28;19934;-72
2021/05/22 10:33:52;;;;;;;;;;;16.90;61.00;;;;;;5097979;28;20006;-71
2021/05/22 10:36:43;;;;;;;;;;;17.00;59.30;;;;;;5097665;28;19916;-71
2021/05/22 10:39:29;;;;;;;;;;;16.80;60.20;;;;;;5098366;28;19908;-71
2021/05/22 10:41:54;;;;;;;;;;;16.60;60.60;;;;;;5097909;28;19923;-71
2021/05/22 10:44:27;;;;;;;;;;;16.60;61.00;;;;;;5097442;28;19908;-71
2021/05/22 10:47:12;;;;;;;;;;;16.90;59.40;;;;;;5098059;28;20189;-70
2021/05/22 10:49:49;;;;;;;;;;;16.10;60.60;;;;;;5098287;28;19913;-71
2021/05/22 10:52:15;;;;;;;;;;;16.00;61.00;;;;;;5079265;28;19908;-71
2021/05/22 10:55:01;;;;;;;;;;;16.00;60.40;;;;;;5080273;28;19977;-72
2021/05/22 10:57:27;;;;;;;;;;;16.00;63.30;;;;;;5083698;28;19919;-72
2021/05/22 11:00:11;;;;;;;;;;;16.40;59.70;;;;;;5093877;28;20324;-72
2021/05/22 11:02:41;;;;;;;;;;;16.00;61.00;;;;;;5089589;28;19920;-72
2021/05/22 11:05:27;;;;;;;;;;;16.50;61.70;;;;;;5088747;28;19913;-72
2021/05/22 11:08:04;;;;;;;;;;;16.70;58.10;;;;;;5078685;28;20224;-71
2021/05/22 11:10:42;;;;;;;;;;;16.00;60.80;;;;;;5069819;28;20313;-72
2021/05/22 11:13:30;;;;;;;;;;;16.10;61.10;;;;;;5077728;28;19927;-72
2021/05/22 11:15:57;;;;;;;;;;;15.50;61.80;;;;;;5075355;28;19928;-71
2021/05/22 11:18:23;;;;;;;;;;;16.10;61.70;;;;;;5089958;28;19935;-70
2021/05/22 11:21:07;;;;;;;;;;;16.70;60.90;;;;;;5089293;28;19916;-72
2021/05/22 11:23:52;;;;;;;;;;;16.70;58.50;;;;;;5092548;28;19918;-71
2021/05/22 11:26:38;;;;;;;;;;;16.00;60.60;;;;;;5097582;28;19940;-70
2021/05/22 11:29:03;;;;;;;;;;;16.40;60.20;;;;;;5083179;28;19916;-72
2021/05/22 11:31:32;;;;;;;;;;;16.50;59.30;;;;;;5088220;28;19923;-71
2021/05/22 11:34:16;;;;;;;;;;;16.30;60.10;;;;;;5083676;28;19919;-72
2021/05/22 11:36:42;;;;;;;;;;;17.00;58.30;;;;;;5093786;28;20220;-70
2021/05/22 11:39:27;;;;;;;;;;;16.00;59.60;;;;;;5093651;28;19912;-70
2021/05/22 11:41:55;;;;;;;;;;;16.10;58.80;;;;;;5081295;28;19920;-69
2021/05/22 11:44:24;;;;;;;;;;;16.70;58.30;;;;;;5064099;28;19912;-71
2021/05/22 11:46:53;;;;;;;;;;;16.00;58.20;;;;;;5092891;28;20330;-71
2021/05/22 11:49:31;;;;;;;;;;;15.70;60.40;;;;;;5097107;28;19912;-71
2021/05/22 11:51:57;;;;;;;;;;;16.60;58.80;;;;;;5080079;28;19912;-71
2021/05/22 11:54:31;;;;;;;;;;;17.00;57.40;;;;;;5081181;28;19920;-71
2021/05/22 11:56:57;;;;;;;;;;;17.20;58.70;;;;;;5096415;28;19975;-72
2021/05/22 11:59:22;;;;;;;;;;;17.10;58.30;;;;;;5080653;28;19908;-72
2021/05/22 12:01:48;;;;;;;;;;;17.10;58.60;;;;;;5079791;28;19917;-71
2021/05/22 12:04:14;;;;;;;;;;;16.80;58.00;;;;;;5096960;28;20003;-72
2021/05/22 12:06:44;;;;;;;;;;;16.60;58.20;;;;;;5095750;28;19919;-71
2021/05/22 12:09:13;;;;;;;;;;;17.00;58.70;;;;;;5096306;28;19915;-71
2021/05/22 12:12:04;;;;;;;;;;;17.30;57.00;;;;;;5076616;28;19966;-72
2021/05/22 12:14:39;;;;;;;;;;;17.20;57.20;;;;;;5067597;28;20224;-71
2021/05/22 12:17:06;;;;;;;;;;;17.20;56.60;;;;;;5089969;28;20003;-71
2021/05/22 12:19:33;;;;;;;;;;;16.70;59.80;;;;;;5095255;28;19990;-71
2021/05/22 12:21:58;;;;;;;;;;;16.80;58.30;;;;;;5093821;28;19912;-71
2021/05/22 12:24:24;;;;;;;;;;;17.20;57.90;;;;;;5096766;28;20212;-71
2021/05/22 12:26:54;;;;;;;;;;;17.00;56.20;;;;;;5096554;28;19914;-71
2021/05/22 12:29:22;;;;;;;;;;;15.90;57.80;;;;;;5095959;28;19938;-71
2021/05/22 12:31:48;;;;;;;;;;;15.40;59.70;;;;;;5094668;28;20322;-71
2021/05/22 12:34:14;;;;;;;;;;;15.60;60.00;;;;;;5093984;28;19920;-71
2021/05/22 12:36:52;;;;;;;;;;;15.90;59.50;;;;;;5086122;28;20259;-71
2021/05/22 12:39:18;;;;;;;;;;;16.00;59.40;;;;;;5088733;28;19909;-71
2021/05/22 12:41:43;;;;;;;;;;;16.40;58.50;;;;;;5095516;28;20011;-71
2021/05/22 12:44:18;;;;;;;;;;;16.80;58.20;;;;;;5077623;28;20289;-71
2021/05/22 12:46:46;;;;;;;;;;;17.00;57.20;;;;;;5078087;28;19965;-71
2021/05/22 12:49:15;;;;;;;;;;;16.60;57.70;;;;;;5086336;28;20301;-71
2021/05/22 12:51:42;;;;;;;;;;;16.80;56.70;;;;;;5081812;28;19908;-72
2021/05/22 12:54:24;;;;;;;;;;;17.00;56.10;;;;;;5075715;28;19978;-71
2021/05/22 12:57:17;;;;;;;;;;;17.10;54.00;;;;;;5058151;28;19909;-72
2021/05/22 12:59:44;;;;;;;;;;;17.60;55.00;;;;;;5091890;28;19912;-72
2021/05/22 13:02:11;;;;;;;;;;;17.70;54.80;;;;;;5090799;28;20003;-71
2021/05/22 13:04:39;;;;;;;;;;;18.10;53.80;;;;;;5081415;28;19917;-71
2021/05/22 13:07:05;;;;;;;;;;;18.20;53.70;;;;;;5085123;28;19912;-71
2021/05/22 13:09:30;;;;;;;;;;;18.00;53.00;;;;;;5094977;28;19931;-72
2021/05/22 13:11:56;;;;;;;;;;;18.30;53.50;;;;;;5086338;28;20534;-71
2021/05/22 13:14:25;;;;;;;;;;;18.70;54.00;;;;;;5082252;28;19925;-71
2021/05/22 13:16:54;;;;;;;;;;;18.70;53.10;;;;;;5091183;28;19919;-70
2021/05/22 13:19:39;;;;;;;;;;;19.00;52.90;;;;;;5094544;28;19912;-71
2021/05/22 13:22:20;;;;;;;;;;;18.70;52.60;;;;;;5092632;28;19934;-70
2021/05/22 13:25:04;;;;;;;;;;;18.30;51.30;;;;;;5092393;28;20222;-72
2021/05/22 13:27:30;;;;;;;;;;;18.30;52.00;;;;;;5082789;28;19979;-71
2021/05/22 13:29:56;;;;;;;;;;;18.00;52.80;;;;;;5078011;28;20007;-69
2021/05/22 13:32:23;;;;;;;;;;;18.10;52.30;;;;;;5083182;28;19917;-71
2021/05/22 13:34:50;;;;;;;;;;;18.40;53.70;;;;;;5080396;28;19960;-70
2021/05/22 13:37:16;;;;;;;;;;;18.90;52.20;;;;;;5066759;28;19920;-71
2021/05/22 13:39:42;;;;;;;;;;;18.20;52.40;;;;;;5092769;28;19961;-71
2021/05/22 13:42:08;;;;;;;;;;;18.30;54.30;;;;;;5058453;28;20331;-71
2021/05/22 13:44:33;;;;;;;;;;;18.90;52.20;;;;;;5082757;28;19924;-71
2021/05/22 13:46:59;;;;;;;;;;;18.80;52.60;;;;;;5096052;28;19960;-71
2021/05/22 13:49:24;;;;;;;;;;;18.60;51.70;;;;;;5095493;28;20324;-71
2021/05/22 13:51:56;;;;;;;;;;;17.90;53.40;;;;;;5091498;28;19963;-72
2021/05/22 13:54:21;;;;;;;;;;;17.80;54.00;;;;;;5098563;28;20331;-71
2021/05/22 13:56:47;;;;;;;;;;;17.30;54.90;;;;;;5104261;28;19920;-71
2021/05/22 13:59:13;;;;;;;;;;;17.30;55.60;;;;;;5096739;28;19912;-71
2021/05/22 14:01:38;;;;;;;;;;;18.30;54.20;;;;;;5103159;28;19912;-71
2021/05/22 14:04:04;;;;;;;;;;;18.80;53.10;;;;;;5096723;28;19920;-71
2021/05/22 14:06:30;;;;;;;;;;;18.40;52.30;;;;;;5087024;28;19923;-71
2021/05/22 14:08:55;;;;;;;;;;;18.40;53.20;;;;;;5094263;28;19912;-71
2021/05/22 14:11:21;;;;;;;;;;;18.70;52.20;;;;;;5093768;28;20228;-72
2021/05/22 14:13:46;;;;;;;;;;;18.40;51.60;;;;;;5097166;28;19912;-72
2021/05/22 14:16:12;;;;;;;;;;;18.60;52.20;;;;;;5082925;28;20363;-72
2021/05/22 14:18:37;;;;;;;;;;;18.80;51.70;;;;;;5097300;28;19957;-71
2021/05/22 14:21:04;;;;;;;;;;;18.20;52.60;;;;;;5082234;28;20382;-71
2021/05/22 14:23:30;;;;;;;;;;;18.60;52.40;;;;;;5079827;28;19912;-72
2021/05/22 14:25:55;;;;;;;;;;;19.10;51.60;;;;;;5090744;28;20213;-72
2021/05/22 14:28:21;;;;;;;;;;;19.00;50.60;;;;;;5086986;28;20422;-71
2021/05/22 14:30:46;;;;;;;;;;;18.70;51.80;;;;;;5085717;28;19912;-71